Overview Statistics Trail Chart Weather Telemetry Raw packets
 

This is the latest recevied weather packets stored in our database for station/object MeshWX-2. If no packets are shown the sender has not sent any weather packets the latest 10 day(s).

<< 28 29 30 31 32 33 34 >>
Time Temp. Humidity Pressure Rain* Wind** Luminosity Snow
1787851786 21.11° C 49% 884.8 hPa - - - -
1787851716 21.11° C 49% 884.8 hPa - - - -
1787849825 23.33° C 48% 884.8 hPa - - - -
1787849805 23.33° C 48% 884.8 hPa - - - -
1787849735 23.33° C 48% 884.8 hPa - - - -
1787847844 23.33° C 49% 884.9 hPa - - - -
1787847825 23.33° C 49% 884.9 hPa - - - -
1787847755 23.33° C 49% 884.9 hPa - - - -
1787847427 20.56° C 50% 886.1 hPa - - - -
1787846900 20.56° C 50% 886.1 hPa - - - -
1787846729 20.56° C 50% 886.1 hPa - - - -
1787845864 26.67° C 47% 885 hPa - - - -
1787845828 26.67° C 47% 885 hPa - - - -
1787843884 26.11° C 48% 885.2 hPa - - - -
1787843847 26.11° C 48% 885.2 hPa - - - -
1787842024 30.56° C 45% 885.3 hPa - - - -
1787841987 30.56° C 45% 885.3 hPa - - - -
1787840043 30° C 45% 885.2 hPa - - - -
1787840006 30° C 45% 885.2 hPa - - - -
1787838063 31.11° C 46% 885.4 hPa - - - -
1787838026 31.11° C 46% 885.4 hPa - - - -
1787836143 31.11° C 47% 885.5 hPa - - - -
1787836105 31.11° C 47% 885.5 hPa - - - -
1787834162 32.22° C 47% 885.6 hPa - - - -
1787834125 32.22° C 47% 885.6 hPa - - - -

* Rain since midnight (hover to see other rain measurements)
** Current wind speed in m/s (hover to see current wind gust speed)